createdAt,value
2022-12-11T00:02:15.050Z,70.78
2022-12-11T00:04:42.837Z,71.30
2022-12-11T00:07:10.382Z,70.73
2022-12-11T00:09:38.879Z,71.04
2022-12-11T00:12:09.092Z,71.66
2022-12-11T00:14:37.362Z,70.89
2022-12-11T00:17:04.993Z,70.87
2022-12-11T00:19:32.713Z,70.58
2022-12-11T00:22:00.254Z,70.19
2022-12-11T00:24:29.430Z,70.49
2022-12-11T00:26:57.037Z,70.38
2022-12-11T00:29:25.927Z,71.50
2022-12-11T00:31:53.551Z,70.96
2022-12-11T00:34:21.133Z,71.35
2022-12-11T00:36:48.686Z,71.62
2022-12-11T00:39:16.182Z,72.15
2022-12-11T00:41:43.713Z,71.92
2022-12-11T00:44:11.377Z,71.75
2022-12-11T00:46:40.347Z,71.00
2022-12-11T00:49:07.940Z,69.91
2022-12-11T00:51:35.463Z,70.81
2022-12-11T00:54:03.092Z,71.30
2022-12-11T00:56:30.864Z,71.46
2022-12-11T00:58:58.523Z,71.00
2022-12-11T01:01:26.400Z,70.76
2022-12-11T01:03:55.449Z,71.29
2022-12-11T01:06:25.509Z,70.76
2022-12-11T01:09:14.245Z,71.38
2022-12-11T01:11:42.796Z,71.18
2022-12-11T01:14:14.221Z,70.95
2022-12-11T01:16:41.816Z,70.62
2022-12-11T01:19:10.780Z,71.08
2022-12-11T01:21:38.342Z,70.85
2022-12-11T01:24:06.589Z,70.19
2022-12-11T01:26:34.118Z,70.20
2022-12-11T01:29:01.666Z,70.28
2022-12-11T01:31:29.243Z,70.17
2022-12-11T01:33:57.572Z,70.00
2022-12-11T01:36:26.421Z,69.64
2022-12-11T01:38:54.493Z,69.13
2022-12-11T01:41:22.569Z,69.31
2022-12-11T01:44:05.412Z,69.69
2022-12-11T01:46:35.380Z,69.01
2022-12-11T01:49:07.059Z,68.80
2022-12-11T01:51:40.428Z,69.65
2022-12-11T01:54:12.570Z,70.09
2022-12-11T01:56:43.566Z,69.28
2022-12-11T01:59:12.066Z,69.92
2022-12-11T02:01:42.618Z,69.60
2022-12-11T02:04:11.319Z,69.64
2022-12-11T02:06:42.035Z,70.05
2022-12-11T02:09:13.157Z,69.45
2022-12-11T02:11:51.783Z,67.93
2022-12-11T02:14:29.639Z,66.96
2022-12-11T02:17:01.929Z,67.80
2022-12-11T02:19:50.293Z,68.70
2022-12-11T02:22:28.564Z,69.75
2022-12-11T02:25:06.050Z,70.63
2022-12-11T02:27:41.899Z,70.75
2022-12-11T02:30:13.746Z,70.63
2022-12-11T02:32:46.528Z,70.66
2022-12-11T02:35:16.736Z,71.09
2022-12-11T02:37:47.931Z,70.61
2022-12-11T02:40:18.890Z,70.76
2022-12-11T02:42:49.264Z,70.95
2022-12-11T02:45:20.242Z,69.75
2022-12-11T02:47:48.889Z,69.63
2022-12-11T02:50:20.348Z,68.79
2022-12-11T02:52:51.431Z,68.45
2022-12-11T02:55:19.897Z,68.88
2022-12-11T02:57:52.542Z,69.49
2022-12-11T03:00:22.543Z,69.04
2022-12-11T03:02:50.264Z,68.82
2022-12-11T03:05:17.962Z,68.85
2022-12-11T03:07:46.539Z,69.22
2022-12-11T03:10:19.026Z,67.37
2022-12-11T03:12:53.446Z,68.05
2022-12-11T03:15:30.645Z,67.86
2022-12-11T03:18:03.638Z,67.98
2022-12-11T03:20:37.953Z,67.72
2022-12-11T03:23:17.490Z,67.88
2022-12-11T03:25:51.606Z,67.84
2022-12-11T03:28:22.006Z,67.49
2022-12-11T03:30:54.514Z,67.36
2022-12-11T03:33:26.677Z,67.83
2022-12-11T03:35:57.051Z,66.97
2022-12-11T03:38:29.370Z,67.15
2022-12-11T03:41:01.778Z,66.46
2022-12-11T03:43:31.998Z,66.75
2022-12-11T03:46:02.423Z,67.42
2022-12-11T03:48:33.920Z,66.78
2022-12-11T03:51:04.748Z,66.27
2022-12-11T03:53:35.017Z,65.62
2022-12-11T03:56:05.110Z,66.18
2022-12-11T03:58:33.282Z,66.99
2022-12-11T04:01:02.219Z,67.80
2022-12-11T04:03:29.829Z,68.15
2022-12-11T04:05:57.463Z,68.13
2022-12-11T04:08:25.393Z,67.62
2022-12-11T04:11:13.957Z,67.84
2022-12-11T04:13:42.354Z,66.71
2022-12-11T04:16:10.336Z,66.60
2022-12-11T04:18:55.365Z,67.07
2022-12-11T04:21:40.827Z,67.16
2022-12-11T04:24:18.070Z,67.04
2022-12-11T04:26:46.707Z,67.04
2022-12-11T04:29:14.450Z,66.76
2022-12-11T04:31:43.396Z,66.76
2022-12-11T04:34:10.998Z,67.45
2022-12-11T04:36:38.894Z,68.16
2022-12-11T04:39:07.131Z,67.50
2022-12-11T04:41:35.069Z,67.10
2022-12-11T04:44:02.872Z,68.02
2022-12-11T04:46:30.383Z,67.37
2022-12-11T04:49:00.197Z,66.58
2022-12-11T04:51:28.518Z,67.45
2022-12-11T04:53:56.567Z,66.55
2022-12-11T04:56:24.181Z,66.52
2022-12-11T04:58:51.757Z,67.11
2022-12-11T05:01:21.253Z,67.25
2022-12-11T05:03:49.094Z,67.36
2022-12-11T05:06:18.322Z,66.99
2022-12-11T05:08:46.230Z,67.91
2022-12-11T05:11:15.852Z,68.11
2022-12-11T05:13:43.923Z,67.27
2022-12-11T05:16:13.726Z,67.05
2022-12-11T05:18:41.365Z,67.65
2022-12-11T05:21:11.124Z,68.22
2022-12-11T05:23:40.290Z,68.57
2022-12-11T05:26:09.588Z,67.97
2022-12-11T05:28:39.288Z,68.12
2022-12-11T05:31:09.552Z,68.56
2022-12-11T05:33:37.246Z,68.19
2022-12-11T05:36:05.345Z,67.72
2022-12-11T05:38:32.879Z,67.58
2022-12-11T05:41:03.564Z,69.27
2022-12-11T05:43:33.368Z,68.82
2022-12-11T05:46:07.144Z,68.28
2022-12-11T05:48:35.006Z,67.82
2022-12-11T05:51:03.774Z,67.72
2022-12-11T05:53:31.787Z,68.43
2022-12-11T05:56:04.876Z,68.11
2022-12-11T05:58:32.930Z,68.46
2022-12-11T06:01:00.671Z,68.26
2022-12-11T06:03:28.510Z,68.44
2022-12-11T06:05:56.065Z,67.70
2022-12-11T06:08:23.653Z,67.28
2022-12-11T06:10:51.811Z,67.54
2022-12-11T06:13:20.668Z,67.57
2022-12-11T06:15:48.254Z,67.36
2022-12-11T06:18:15.783Z,68.39
2022-12-11T06:20:43.403Z,68.13
2022-12-11T06:23:10.973Z,68.09
2022-12-11T06:25:40.008Z,67.79
2022-12-11T06:28:07.629Z,68.35
2022-12-11T06:30:37.355Z,68.61
2022-12-11T06:33:07.058Z,68.33
2022-12-11T06:35:41.424Z,68.78
2022-12-11T06:38:10.506Z,67.29
2022-12-11T06:40:38.207Z,68.56
2022-12-11T06:43:05.911Z,68.49
2022-12-11T06:45:33.587Z,67.59
2022-12-11T06:48:02.511Z,69.01
2022-12-11T06:50:30.048Z,68.35
2022-12-11T06:52:57.976Z,68.01
2022-12-11T06:55:25.499Z,68.04
2022-12-11T06:57:53.029Z,69.04
2022-12-11T07:00:20.833Z,69.69
2022-12-11T07:02:48.404Z,68.90
2022-12-11T07:05:17.532Z,67.37
2022-12-11T07:07:45.213Z,66.70
2022-12-11T07:10:12.769Z,68.14
2022-12-11T07:12:40.432Z,68.98
2022-12-11T07:15:09.306Z,69.07
2022-12-11T07:17:37.025Z,68.54
2022-12-11T07:20:06.022Z,68.78
2022-12-11T07:22:34.995Z,68.73
2022-12-11T07:25:02.608Z,69.32
2022-12-11T07:27:31.098Z,68.64
2022-12-11T07:29:58.968Z,68.17
2022-12-11T07:32:26.684Z,68.86
2022-12-11T07:34:54.308Z,69.12
2022-12-11T07:37:21.845Z,68.48
2022-12-11T07:39:56.896Z,68.60
2022-12-11T07:42:24.456Z,68.22
2022-12-11T07:44:51.998Z,68.04
2022-12-11T07:47:19.539Z,67.66
2022-12-11T07:49:47.063Z,67.94
2022-12-11T07:54:48.865Z,68.45
2022-12-11T07:57:17.736Z,68.43
2022-12-11T07:59:45.252Z,68.68
2022-12-11T08:02:12.892Z,68.40
2022-12-11T08:04:40.477Z,68.87
2022-12-11T08:07:08.022Z,68.30
2022-12-11T08:09:35.815Z,68.21
2022-12-11T08:12:03.528Z,69.19
2022-12-11T08:14:32.350Z,68.54
2022-12-11T08:17:00.228Z,68.49
2022-12-11T08:19:28.655Z,68.41
2022-12-11T08:21:56.183Z,67.80
2022-12-11T08:24:23.662Z,67.51
2022-12-11T08:26:51.137Z,67.87
2022-12-11T08:29:18.643Z,68.18
2022-12-11T08:31:47.500Z,68.54
2022-12-11T08:34:15.008Z,68.15
2022-12-11T08:36:43.811Z,67.76
2022-12-11T08:39:11.334Z,67.62
2022-12-11T08:41:38.868Z,67.72
2022-12-11T08:44:08.451Z,68.35
2022-12-11T08:46:37.948Z,68.00
2022-12-11T08:49:06.844Z,67.93
2022-12-11T08:51:34.358Z,68.35
2022-12-11T08:54:02.291Z,68.40
2022-12-11T08:56:30.395Z,68.91
2022-12-11T08:59:00.787Z,68.73
2022-12-11T09:01:29.184Z,68.63
2022-12-11T09:03:57.751Z,69.16
2022-12-11T09:06:28.943Z,69.18
2022-12-11T09:08:57.204Z,68.66
2022-12-11T09:11:27.377Z,68.68
2022-12-11T09:13:55.059Z,69.25
2022-12-11T09:16:25.053Z,69.57
2022-12-11T09:18:54.412Z,68.84
2022-12-11T09:21:23.439Z,68.48
2022-12-11T09:23:53.964Z,69.48
2022-12-11T09:26:21.718Z,68.89
2022-12-11T09:28:51.240Z,68.63
2022-12-11T09:31:23.352Z,68.86
2022-12-11T09:33:51.663Z,68.22
2022-12-11T09:36:19.311Z,67.50
2022-12-11T09:38:48.054Z,67.80
2022-12-11T09:41:35.939Z,67.11
2022-12-11T09:44:14.051Z,67.85
2022-12-11T09:46:42.400Z,67.77
2022-12-11T09:49:25.722Z,68.09
2022-12-11T09:52:03.449Z,68.13
2022-12-11T09:54:31.086Z,67.76
2022-12-11T09:57:10.086Z,67.54
2022-12-11T09:59:43.214Z,67.78
2022-12-11T10:02:26.818Z,68.47
2022-12-11T10:05:04.201Z,67.57
2022-12-11T10:07:36.780Z,67.88
2022-12-11T10:10:15.693Z,68.07
2022-12-11T10:12:55.797Z,68.59
2022-12-11T10:15:36.827Z,68.42
2022-12-11T10:18:08.033Z,68.61
2022-12-11T10:20:39.405Z,68.52
2022-12-11T10:23:10.455Z,68.90
2022-12-11T10:25:45.802Z,68.83
2022-12-11T10:28:16.556Z,67.90
2022-12-11T10:30:49.475Z,68.27
2022-12-11T10:33:22.731Z,66.30
2022-12-11T10:35:52.539Z,66.71
2022-12-11T10:38:26.310Z,67.22
2022-12-11T10:40:56.891Z,67.24
2022-12-11T10:43:36.142Z,67.87
2022-12-11T10:46:05.436Z,67.55
2022-12-11T10:48:33.100Z,67.71
2022-12-11T10:51:04.846Z,67.53
2022-12-11T10:53:34.370Z,68.08
2022-12-11T10:56:03.074Z,67.66
2022-12-11T10:58:33.959Z,67.90
2022-12-11T11:01:08.557Z,67.86
2022-12-11T11:03:41.760Z,67.98
2022-12-11T11:06:17.231Z,68.22
2022-12-11T11:08:46.945Z,68.02
2022-12-11T11:11:22.694Z,67.69
2022-12-11T11:13:51.830Z,67.46
2022-12-11T11:16:23.023Z,67.62
2022-12-11T11:18:54.906Z,67.98
2022-12-11T11:21:24.532Z,67.61
2022-12-11T11:23:53.612Z,67.31
2022-12-11T11:26:22.636Z,67.25
2022-12-11T11:28:53.434Z,67.02
2022-12-11T11:31:31.220Z,67.35
2022-12-11T11:34:03.185Z,67.70
2022-12-11T11:36:32.951Z,67.30
2022-12-11T11:39:19.811Z,67.10
2022-12-11T11:41:53.333Z,67.08
2022-12-11T11:44:29.832Z,67.17
2022-12-11T11:47:05.642Z,67.32
2022-12-11T11:49:48.071Z,67.71
2022-12-11T11:52:25.201Z,68.05
2022-12-11T11:55:06.075Z,66.93
2022-12-11T11:57:39.401Z,67.25
2022-12-11T12:00:16.880Z,67.17
2022-12-11T12:02:47.013Z,66.94
2022-12-11T12:05:14.913Z,67.35
2022-12-11T12:07:51.597Z,67.26
2022-12-11T12:10:26.371Z,66.92
2022-12-11T12:13:01.921Z,65.98
2022-12-11T12:15:40.170Z,66.32
2022-12-11T12:18:16.669Z,66.49
2022-12-11T12:20:49.743Z,65.72
2022-12-11T12:23:36.303Z,66.70
2022-12-11T12:26:11.811Z,66.80
2022-12-11T12:28:46.036Z,66.47
2022-12-11T12:31:37.916Z,66.99
2022-12-11T12:34:15.774Z,67.42
2022-12-11T12:36:49.432Z,67.37
2022-12-11T12:39:28.215Z,67.24
2022-12-11T12:42:07.772Z,65.94
2022-12-11T12:44:42.871Z,66.49
2022-12-11T12:47:14.228Z,67.24
2022-12-11T12:49:44.502Z,67.47
2022-12-11T12:52:17.191Z,66.51
2022-12-11T12:55:08.580Z,67.47
2022-12-11T12:57:39.629Z,68.61
2022-12-11T13:00:13.039Z,68.62
2022-12-11T13:02:49.651Z,69.17
2022-12-11T13:05:24.481Z,68.70
2022-12-11T13:07:56.217Z,68.84
2022-12-11T13:10:28.496Z,69.20
2022-12-11T13:12:56.447Z,68.72
2022-12-11T13:15:36.934Z,68.50
2022-12-11T13:18:08.320Z,68.51
2022-12-11T13:20:48.213Z,68.97
2022-12-11T13:23:26.945Z,67.59
2022-12-11T13:25:57.403Z,67.83
2022-12-11T13:28:28.662Z,67.99
2022-12-11T13:31:01.714Z,67.50
2022-12-11T13:33:30.474Z,67.69
2022-12-11T13:36:25.198Z,68.33
2022-12-11T13:38:56.381Z,67.75
2022-12-11T13:41:24.581Z,68.00
2022-12-11T13:43:54.045Z,67.59
2022-12-11T13:46:26.806Z,67.46
2022-12-11T13:52:27.697Z,67.96
2022-12-11T13:54:56.017Z,67.52
2022-12-11T13:57:26.058Z,67.68
2022-12-11T13:59:55.301Z,67.20
2022-12-11T14:02:26.763Z,68.45
2022-12-11T14:04:58.738Z,67.86
2022-12-11T14:07:30.630Z,67.87
2022-12-11T14:10:04.194Z,68.93
2022-12-11T14:12:33.126Z,68.21
2022-12-11T14:15:03.743Z,68.21
2022-12-11T14:17:34.252Z,68.57
2022-12-11T14:20:07.290Z,67.82
2022-12-11T14:22:36.675Z,68.16
2022-12-11T14:25:20.423Z,67.53
2022-12-11T14:27:49.741Z,67.82
2022-12-11T14:30:23.446Z,67.11
2022-12-11T14:32:55.143Z,67.30
2022-12-11T14:35:27.469Z,68.71
2022-12-11T14:37:59.413Z,68.06
2022-12-11T14:40:31.366Z,67.73
2022-12-11T14:43:02.190Z,68.08
2022-12-11T14:45:35.085Z,67.55
2022-12-11T14:48:05.878Z,67.17
2022-12-11T14:50:39.265Z,68.08
2022-12-11T14:53:14.488Z,67.20
2022-12-11T14:55:42.579Z,67.45
2022-12-11T14:58:18.033Z,68.04
2022-12-11T15:00:45.713Z,67.12
2022-12-11T15:03:24.664Z,67.49
2022-12-11T15:05:54.561Z,67.54
2022-12-11T15:08:27.872Z,66.46
2022-12-11T15:11:03.017Z,65.07
2022-12-11T15:13:31.110Z,66.66
2022-12-11T15:15:59.786Z,66.20
2022-12-11T15:18:30.871Z,66.77
2022-12-11T15:21:00.910Z,66.53
2022-12-11T15:23:30.758Z,66.28
2022-12-11T15:26:01.009Z,66.58
2022-12-11T15:28:31.589Z,65.87
2022-12-11T15:31:02.095Z,66.85
2022-12-11T15:33:34.239Z,66.11
2022-12-11T15:36:05.155Z,66.49
2022-12-11T15:38:36.732Z,66.72
2022-12-11T15:41:05.148Z,66.93
2022-12-11T15:43:37.387Z,67.02
2022-12-11T15:46:06.658Z,67.27
2022-12-11T15:48:34.677Z,66.98
2022-12-11T15:51:03.671Z,66.80
2022-12-11T15:53:31.439Z,65.87
2022-12-11T15:56:00.843Z,65.83
2022-12-11T15:58:28.833Z,66.27
2022-12-11T16:00:57.740Z,66.09
2022-12-11T16:03:25.312Z,66.08
2022-12-11T16:05:54.086Z,66.53
2022-12-11T16:08:23.702Z,66.43
2022-12-11T16:10:54.522Z,66.26
2022-12-11T16:13:23.662Z,66.55
2022-12-11T16:15:53.644Z,66.69
2022-12-11T16:18:23.353Z,66.25
2022-12-11T16:20:52.376Z,66.48
2022-12-11T16:23:20.933Z,65.88
2022-12-11T16:25:48.883Z,66.16
2022-12-11T16:28:20.613Z,66.72
2022-12-11T16:30:49.642Z,66.43
2022-12-11T16:33:17.279Z,66.88
2022-12-11T16:35:44.789Z,66.15
2022-12-11T16:38:13.506Z,66.32
2022-12-11T16:40:41.451Z,65.96
2022-12-11T16:43:09.365Z,66.23
2022-12-11T16:45:36.919Z,66.69
2022-12-11T16:48:06.475Z,66.08
2022-12-11T16:50:34.556Z,65.88
2022-12-11T16:53:02.733Z,65.88
2022-12-11T16:55:30.260Z,65.81
2022-12-11T16:57:57.764Z,65.70
2022-12-11T17:00:25.620Z,65.77
2022-12-11T17:02:53.426Z,65.78
2022-12-11T17:05:22.672Z,65.84
2022-12-11T17:07:50.705Z,66.51
2022-12-11T17:10:18.383Z,66.40
2022-12-11T17:12:45.912Z,66.90
2022-12-11T17:15:13.662Z,67.88
2022-12-11T17:17:43.109Z,67.97
2022-12-11T17:20:11.372Z,67.91
2022-12-11T17:22:40.756Z,68.36
2022-12-11T17:25:09.300Z,68.51
2022-12-11T17:27:37.037Z,68.76
2022-12-11T17:30:06.377Z,68.41
2022-12-11T17:32:33.906Z,67.87
2022-12-11T17:35:01.605Z,67.52
2022-12-11T17:37:29.232Z,68.37
2022-12-11T17:39:58.099Z,68.35
2022-12-11T17:42:25.728Z,68.04
2022-12-11T17:44:53.325Z,67.62
2022-12-11T17:47:20.887Z,67.69
2022-12-11T17:49:48.499Z,67.51
2022-12-11T17:52:16.168Z,66.91
2022-12-11T17:54:43.731Z,66.82
2022-12-11T17:57:12.616Z,66.58
2022-12-11T17:59:40.254Z,66.67
2022-12-11T18:02:07.840Z,66.58
2022-12-11T18:04:38.748Z,66.87
2022-12-11T18:07:06.874Z,67.76
2022-12-11T18:09:34.416Z,67.77
2022-12-11T18:12:01.927Z,67.43
2022-12-11T18:14:30.790Z,66.15
2022-12-11T18:16:58.376Z,66.86
2022-12-11T18:19:27.070Z,67.49
2022-12-11T18:21:55.524Z,66.85
2022-12-11T18:24:25.762Z,66.06
2022-12-11T18:26:53.293Z,65.40
2022-12-11T18:29:20.889Z,66.20
2022-12-11T18:31:49.781Z,66.04
2022-12-11T18:34:17.426Z,66.00
2022-12-11T18:36:44.981Z,65.04
2022-12-11T18:39:12.977Z,65.91
2022-12-11T18:41:40.489Z,65.41
2022-12-11T18:44:10.003Z,65.17
2022-12-11T18:46:39.340Z,65.58
2022-12-11T18:49:08.412Z,65.98
2022-12-11T18:51:35.951Z,65.69
2022-12-11T18:54:03.505Z,66.22
2022-12-11T18:56:31.113Z,65.72
2022-12-11T18:58:58.637Z,66.42
2022-12-11T19:01:28.811Z,66.44
2022-12-11T19:04:03.194Z,67.12
2022-12-11T19:06:35.427Z,66.73
2022-12-11T19:09:05.070Z,66.27
2022-12-11T19:11:34.220Z,67.47
2022-12-11T19:14:02.058Z,67.19
2022-12-11T19:16:33.594Z,67.81
2022-12-11T19:19:03.497Z,66.90
2022-12-11T19:21:31.431Z,67.25
2022-12-11T19:24:00.665Z,67.18
2022-12-11T19:26:28.290Z,67.23
2022-12-11T19:28:59.880Z,67.12
2022-12-11T19:31:29.446Z,67.15
2022-12-11T19:33:57.891Z,67.41
2022-12-11T19:36:27.628Z,68.35
2022-12-11T19:39:01.135Z,67.52
2022-12-11T19:41:31.918Z,67.42
2022-12-11T19:44:00.944Z,67.59
2022-12-11T19:46:29.636Z,68.42
2022-12-11T19:48:59.155Z,69.05
2022-12-11T19:51:30.078Z,67.97
2022-12-11T19:53:58.271Z,67.54
2022-12-11T19:56:25.830Z,68.44
2022-12-11T19:58:54.695Z,68.92
2022-12-11T20:01:25.740Z,68.38
2022-12-11T20:03:53.854Z,68.34
2022-12-11T20:06:21.530Z,68.75
2022-12-11T20:08:49.575Z,68.48
2022-12-11T20:11:19.030Z,68.43
2022-12-11T20:13:47.531Z,68.52
2022-12-11T20:16:17.544Z,67.88
2022-12-11T20:18:46.790Z,66.58
2022-12-11T20:21:17.159Z,66.88
2022-12-11T20:23:45.742Z,66.64
2022-12-11T20:26:15.573Z,68.35
2022-12-11T20:28:43.165Z,68.08
2022-12-11T20:31:19.571Z,66.40
2022-12-11T20:33:49.721Z,65.75
2022-12-11T20:36:19.270Z,65.81
2022-12-11T20:38:46.940Z,65.28
2022-12-11T20:41:16.855Z,65.20
2022-12-11T20:43:45.081Z,65.05
2022-12-11T20:46:15.720Z,66.00
2022-12-11T20:48:44.752Z,67.28
2022-12-11T20:51:18.587Z,67.65
2022-12-11T20:53:56.421Z,67.44
2022-12-11T20:56:25.050Z,68.16
2022-12-11T20:58:52.608Z,68.05
2022-12-11T21:01:21.978Z,67.08
2022-12-11T21:03:49.905Z,67.75
2022-12-11T21:06:23.617Z,66.36
2022-12-11T21:08:51.142Z,66.76
2022-12-11T21:11:18.933Z,67.06
2022-12-11T21:13:46.631Z,68.11
2022-12-11T21:16:14.288Z,68.52
2022-12-11T21:18:44.179Z,68.77
2022-12-11T21:21:12.149Z,68.67
2022-12-11T21:23:41.073Z,68.75
2022-12-11T21:26:08.666Z,68.60
2022-12-11T21:28:36.247Z,69.00
2022-12-11T21:31:06.082Z,69.32
2022-12-11T21:33:34.133Z,68.69
2022-12-11T21:36:01.926Z,68.52
2022-12-11T21:38:29.748Z,68.46
2022-12-11T21:40:58.866Z,68.76
2022-12-11T21:43:26.469Z,68.83
2022-12-11T21:46:02.334Z,68.96
2022-12-11T21:48:30.197Z,68.56
2022-12-11T21:51:06.287Z,69.28
2022-12-11T21:53:34.064Z,68.97
2022-12-11T21:56:05.943Z,68.42
2022-12-11T21:58:33.978Z,67.88
2022-12-11T22:01:01.533Z,68.70
2022-12-11T22:03:29.358Z,68.69
2022-12-11T22:05:56.925Z,68.71
2022-12-11T22:08:25.199Z,68.30
2022-12-11T22:10:52.816Z,67.75
2022-12-11T22:13:21.689Z,67.97
2022-12-11T22:15:49.267Z,68.32
2022-12-11T22:18:16.993Z,68.29
2022-12-11T22:20:44.755Z,68.22
2022-12-11T22:23:12.478Z,68.51
2022-12-11T22:25:40.100Z,68.60
2022-12-11T22:28:07.644Z,67.41
2022-12-11T22:30:38.416Z,68.29
2022-12-11T22:33:06.213Z,68.32
2022-12-11T22:35:34.040Z,68.64
2022-12-11T22:38:01.608Z,68.31
2022-12-11T22:40:29.904Z,67.89
2022-12-11T22:42:57.754Z,67.91
2022-12-11T22:45:25.432Z,68.13
2022-12-11T22:47:54.281Z,67.44
2022-12-11T22:50:22.274Z,67.65
2022-12-11T22:52:49.804Z,67.44
2022-12-11T22:55:17.380Z,67.08
2022-12-11T22:57:44.937Z,66.38
2022-12-11T23:00:14.473Z,65.90
2022-12-11T23:02:42.869Z,66.38
2022-12-11T23:05:13.016Z,66.34
2022-12-11T23:07:40.764Z,65.89
2022-12-11T23:10:10.522Z,65.30
2022-12-11T23:12:38.172Z,65.17
2022-12-11T23:15:07.953Z,65.13
2022-12-11T23:17:35.990Z,65.89
2022-12-11T23:20:05.688Z,66.00
2022-12-11T23:22:34.659Z,65.80
2022-12-11T23:25:02.252Z,65.57
2022-12-11T23:27:30.346Z,65.43
2022-12-11T23:29:57.895Z,65.63
2022-12-11T23:32:25.962Z,65.64
2022-12-11T23:34:53.496Z,66.13
2022-12-11T23:37:21.047Z,65.86
2022-12-11T23:39:49.945Z,65.83
2022-12-11T23:42:17.646Z,66.26
2022-12-11T23:44:45.271Z,66.84
2022-12-11T23:47:12.776Z,65.88
2022-12-11T23:49:40.354Z,65.72
2022-12-11T23:52:08.565Z,66.15
2022-12-11T23:54:36.100Z,65.10
2022-12-11T23:57:05.041Z,65.17
2022-12-11T23:59:32.634Z,65.77
